sensor_id;sensor_type;location;lat;lon;timestamp;pressure;altitude;pressure_sealevel;temperature;humidity
63916;BME280;50094;51.356;-0.196;2023-01-26T00:00:46;102026.67;;;21.55;26.37
63916;BME280;50094;51.356;-0.196;2023-01-26T00:03:14;102025.92;;;21.77;26.35
63916;BME280;50094;51.356;-0.196;2023-01-26T00:05:41;102026.08;;;21.70;26.45
63916;BME280;50094;51.356;-0.196;2023-01-26T00:08:09;102028.10;;;21.90;26.60
63916;BME280;50094;51.356;-0.196;2023-01-26T00:10:38;102026.01;;;22.33;26.85
63916;BME280;50094;51.356;-0.196;2023-01-26T00:13:07;102027.48;;;21.95;27.69
63916;BME280;50094;51.356;-0.196;2023-01-26T00:15:36;102027.27;;;22.48;28.36
63916;BME280;50094;51.356;-0.196;2023-01-26T00:18:03;102024.49;;;22.11;29.69
63916;BME280;50094;51.356;-0.196;2023-01-26T00:20:30;102023.13;;;22.90;30.68
63916;BME280;50094;51.356;-0.196;2023-01-26T00:22:57;102024.13;;;23.58;32.15
63916;BME280;50094;51.356;-0.196;2023-01-26T00:25:24;102020.06;;;23.97;33.02
63916;BME280;50094;51.356;-0.196;2023-01-26T00:27:51;102023.52;;;23.96;33.64
63916;BME280;50094;51.356;-0.196;2023-01-26T00:30:18;102025.82;;;24.08;34.22
63916;BME280;50094;51.356;-0.196;2023-01-26T00:32:45;102020.15;;;24.44;34.82
63916;BME280;50094;51.356;-0.196;2023-01-26T00:35:13;102023.27;;;24.72;35.32
63916;BME280;50094;51.356;-0.196;2023-01-26T00:37:41;102023.61;;;24.95;35.71
63916;BME280;50094;51.356;-0.196;2023-01-26T00:40:09;102023.51;;;25.03;36.02
63916;BME280;50094;51.356;-0.196;2023-01-26T00:42:37;102029.99;;;25.36;36.25
63916;BME280;50094;51.356;-0.196;2023-01-26T00:45:05;102023.58;;;25.33;36.37
63916;BME280;50094;51.356;-0.196;2023-01-26T00:47:32;102021.24;;;25.31;36.44
63916;BME280;50094;51.356;-0.196;2023-01-26T00:50:00;102022.22;;;25.47;36.41
63916;BME280;50094;51.356;-0.196;2023-01-26T00:52:27;102026.17;;;25.48;36.67
63916;BME280;50094;51.356;-0.196;2023-01-26T00:54:54;102031.01;;;25.83;36.91
63916;BME280;50094;51.356;-0.196;2023-01-26T00:57:21;102033.43;;;25.76;36.88
63916;BME280;50094;51.356;-0.196;2023-01-26T00:59:48;102035.67;;;25.47;36.95
63916;BME280;50094;51.356;-0.196;2023-01-26T01:02:15;102028.04;;;25.52;36.94
63916;BME280;50094;51.356;-0.196;2023-01-26T01:04:42;102025.09;;;26.06;37.35
63916;BME280;50094;51.356;-0.196;2023-01-26T01:07:09;102021.84;;;25.62;37.09
63916;BME280;50094;51.356;-0.196;2023-01-26T01:09:37;102034.42;;;25.76;37.28
63916;BME280;50094;51.356;-0.196;2023-01-26T01:12:04;102033.66;;;26.02;37.46
63916;BME280;50094;51.356;-0.196;2023-01-26T01:14:31;102035.24;;;26.04;37.15
63916;BME280;50094;51.356;-0.196;2023-01-26T01:16:59;102035.99;;;25.99;37.50
63916;BME280;50094;51.356;-0.196;2023-01-26T01:19:26;102030.78;;;26.22;37.51
63916;BME280;50094;51.356;-0.196;2023-01-26T01:21:53;102039.69;;;26.29;37.56
63916;BME280;50094;51.356;-0.196;2023-01-26T01:24:20;102037.75;;;26.21;37.21
63916;BME280;50094;51.356;-0.196;2023-01-26T01:26:48;102038.14;;;26.16;37.17
63916;BME280;50094;51.356;-0.196;2023-01-26T01:29:15;102046.26;;;26.35;37.13
63916;BME280;50094;51.356;-0.196;2023-01-26T01:31:42;102049.62;;;26.37;37.12
63916;BME280;50094;51.356;-0.196;2023-01-26T01:34:10;102047.04;;;26.26;37.04
63916;BME280;50094;51.356;-0.196;2023-01-26T01:36:38;102040.59;;;26.51;36.86
63916;BME280;50094;51.356;-0.196;2023-01-26T01:39:04;102041.83;;;26.55;36.77
63916;BME280;50094;51.356;-0.196;2023-01-26T01:41:32;102044.79;;;26.26;36.69
63916;BME280;50094;51.356;-0.196;2023-01-26T01:44:17;102041.87;;;26.55;36.59
63916;BME280;50094;51.356;-0.196;2023-01-26T01:46:52;102038.21;;;26.21;36.49
63916;BME280;50094;51.356;-0.196;2023-01-26T01:49:25;102038.29;;;26.85;36.32
63916;BME280;50094;51.356;-0.196;2023-01-26T01:51:56;102037.76;;;26.71;36.06
63916;BME280;50094;51.356;-0.196;2023-01-26T01:54:28;102043.61;;;26.72;36.02
63916;BME280;50094;51.356;-0.196;2023-01-26T01:56:59;102041.76;;;27.06;35.83
63916;BME280;50094;51.356;-0.196;2023-01-26T01:59:29;102045.39;;;27.06;35.57
63916;BME280;50094;51.356;-0.196;2023-01-26T02:01:58;102046.65;;;27.04;35.37
63916;BME280;50094;51.356;-0.196;2023-01-26T02:04:25;102048.16;;;27.05;35.21
63916;BME280;50094;51.356;-0.196;2023-01-26T02:06:55;102046.03;;;26.79;35.18
63916;BME280;50094;51.356;-0.196;2023-01-26T02:09:29;102051.12;;;27.09;35.03
63916;BME280;50094;51.356;-0.196;2023-01-26T02:11:58;102046.59;;;27.26;34.73
63916;BME280;50094;51.356;-0.196;2023-01-26T02:14:26;102046.36;;;27.23;34.68
63916;BME280;50094;51.356;-0.196;2023-01-26T02:16:54;102048.18;;;27.51;34.47
63916;BME280;50094;51.356;-0.196;2023-01-26T02:19:26;102039.19;;;27.43;34.31
63916;BME280;50094;51.356;-0.196;2023-01-26T02:21:59;102036.88;;;27.46;34.16
63916;BME280;50094;51.356;-0.196;2023-01-26T02:24:35;102038.76;;;27.23;34.03
63916;BME280;50094;51.356;-0.196;2023-01-26T02:27:03;102040.04;;;27.33;33.90
63916;BME280;50094;51.356;-0.196;2023-01-26T02:29:31;102038.53;;;27.23;33.81
63916;BME280;50094;51.356;-0.196;2023-01-26T02:31:58;102040.81;;;27.43;33.65
63916;BME280;50094;51.356;-0.196;2023-01-26T02:34:25;102040.22;;;27.46;33.44
63916;BME280;50094;51.356;-0.196;2023-01-26T02:36:56;102040.25;;;27.75;33.30
63916;BME280;50094;51.356;-0.196;2023-01-26T02:39:35;102043.55;;;27.20;33.18
63916;BME280;50094;51.356;-0.196;2023-01-26T02:42:04;102056.48;;;27.85;32.94
63916;BME280;50094;51.356;-0.196;2023-01-26T02:44:32;102049.68;;;27.73;32.79
63916;BME280;50094;51.356;-0.196;2023-01-26T02:47:00;102048.49;;;27.55;32.71
63916;BME280;50094;51.356;-0.196;2023-01-26T02:49:27;102047.46;;;27.53;32.61
63916;BME280;50094;51.356;-0.196;2023-01-26T02:51:54;102049.77;;;27.58;32.51
63916;BME280;50094;51.356;-0.196;2023-01-26T02:54:21;102050.84;;;27.70;32.46
63916;BME280;50094;51.356;-0.196;2023-01-26T02:56:48;102053.25;;;27.43;32.33
63916;BME280;50094;51.356;-0.196;2023-01-26T02:59:15;102054.60;;;27.83;32.09
63916;BME280;50094;51.356;-0.196;2023-01-26T03:01:43;102053.52;;;27.74;32.02
63916;BME280;50094;51.356;-0.196;2023-01-26T03:04:10;102057.18;;;27.86;31.97
63916;BME280;50094;51.356;-0.196;2023-01-26T03:06:37;102065.74;;;27.71;31.82
63916;BME280;50094;51.356;-0.196;2023-01-26T03:09:05;102059.52;;;27.68;31.71
63916;BME280;50094;51.356;-0.196;2023-01-26T03:11:32;102055.08;;;27.77;31.59
63916;BME280;50094;51.356;-0.196;2023-01-26T03:14:00;102058.31;;;27.62;31.61
63916;BME280;50094;51.356;-0.196;2023-01-26T03:16:27;102058.81;;;27.75;31.45
63916;BME280;50094;51.356;-0.196;2023-01-26T03:18:54;102057.90;;;27.86;31.34
63916;BME280;50094;51.356;-0.196;2023-01-26T03:21:21;102063.21;;;27.87;31.24
63916;BME280;50094;51.356;-0.196;2023-01-26T03:23:49;102056.98;;;27.95;31.14
63916;BME280;50094;51.356;-0.196;2023-01-26T03:26:16;102056.37;;;27.82;30.97
63916;BME280;50094;51.356;-0.196;2023-01-26T03:28:44;102061.30;;;28.15;30.84
63916;BME280;50094;51.356;-0.196;2023-01-26T03:31:12;102059.65;;;28.19;30.69
63916;BME280;50094;51.356;-0.196;2023-01-26T03:33:38;102058.28;;;28.10;30.67
63916;BME280;50094;51.356;-0.196;2023-01-26T03:36:06;102061.50;;;28.42;30.59
63916;BME280;50094;51.356;-0.196;2023-01-26T03:38:33;102062.14;;;28.14;30.49
63916;BME280;50094;51.356;-0.196;2023-01-26T03:41:00;102065.72;;;27.99;30.40
63916;BME280;50094;51.356;-0.196;2023-01-26T03:43:27;102071.13;;;28.26;30.30
63916;BME280;50094;51.356;-0.196;2023-01-26T03:45:55;102073.08;;;28.36;30.16
63916;BME280;50094;51.356;-0.196;2023-01-26T03:48:23;102070.94;;;28.05;30.12
63916;BME280;50094;51.356;-0.196;2023-01-26T03:50:50;102068.00;;;28.27;30.09
63916;BME280;50094;51.356;-0.196;2023-01-26T03:53:20;102068.22;;;28.43;29.96
63916;BME280;50094;51.356;-0.196;2023-01-26T03:55:47;102079.54;;;28.38;29.89
63916;BME280;50094;51.356;-0.196;2023-01-26T03:58:15;102070.75;;;28.20;29.81
63916;BME280;50094;51.356;-0.196;2023-01-26T04:00:42;102071.99;;;28.34;29.81
63916;BME280;50094;51.356;-0.196;2023-01-26T04:03:10;102066.03;;;28.18;29.76
63916;BME280;50094;51.356;-0.196;2023-01-26T04:05:38;102068.45;;;28.29;29.61
63916;BME280;50094;51.356;-0.196;2023-01-26T04:08:06;102064.75;;;28.59;29.49
63916;BME280;50094;51.356;-0.196;2023-01-26T04:10:33;102067.81;;;28.36;29.42
63916;BME280;50094;51.356;-0.196;2023-01-26T04:13:01;102064.91;;;28.42;29.32
63916;BME280;50094;51.356;-0.196;2023-01-26T04:15:28;102077.69;;;28.44;29.22
63916;BME280;50094;51.356;-0.196;2023-01-26T04:17:56;102080.59;;;28.48;29.17
63916;BME280;50094;51.356;-0.196;2023-01-26T04:20:23;102070.20;;;28.77;29.06
63916;BME280;50094;51.356;-0.196;2023-01-26T04:22:51;102080.19;;;28.28;29.05
63916;BME280;50094;51.356;-0.196;2023-01-26T04:25:20;102069.65;;;28.53;28.98
63916;BME280;50094;51.356;-0.196;2023-01-26T04:27:47;102070.90;;;28.82;28.89
63916;BME280;50094;51.356;-0.196;2023-01-26T04:30:16;102074.13;;;28.50;28.78
63916;BME280;50094;51.356;-0.196;2023-01-26T04:32:44;102077.76;;;28.73;28.72
63916;BME280;50094;51.356;-0.196;2023-01-26T04:35:11;102087.65;;;28.55;28.63
63916;BME280;50094;51.356;-0.196;2023-01-26T04:37:38;102086.99;;;28.77;28.54
63916;BME280;50094;51.356;-0.196;2023-01-26T04:40:08;102092.49;;;28.65;28.40
63916;BME280;50094;51.356;-0.196;2023-01-26T04:42:36;102101.83;;;29.10;28.35
63916;BME280;50094;51.356;-0.196;2023-01-26T04:45:04;102102.31;;;28.65;28.32
63916;BME280;50094;51.356;-0.196;2023-01-26T04:47:31;102098.94;;;28.59;28.30
63916;BME280;50094;51.356;-0.196;2023-01-26T04:49:58;102107.58;;;28.97;28.32
63916;BME280;50094;51.356;-0.196;2023-01-26T04:52:26;102104.36;;;29.16;28.01
63916;BME280;50094;51.356;-0.196;2023-01-26T04:54:53;102103.06;;;29.01;28.02
63916;BME280;50094;51.356;-0.196;2023-01-26T04:57:21;102101.08;;;29.03;27.96
63916;BME280;50094;51.356;-0.196;2023-01-26T04:59:49;102098.60;;;28.83;27.93
63916;BME280;50094;51.356;-0.196;2023-01-26T05:02:16;102096.27;;;29.11;27.86
63916;BME280;50094;51.356;-0.196;2023-01-26T05:04:44;102098.37;;;28.94;27.80
63916;BME280;50094;51.356;-0.196;2023-01-26T05:07:11;102099.88;;;28.97;27.72
63916;BME280;50094;51.356;-0.196;2023-01-26T05:09:39;102099.08;;;28.95;27.66
63916;BME280;50094;51.356;-0.196;2023-01-26T05:12:07;102097.98;;;29.05;27.59
63916;BME280;50094;51.356;-0.196;2023-01-26T05:14:35;102097.97;;;29.26;27.53
63916;BME280;50094;51.356;-0.196;2023-01-26T05:17:02;102099.06;;;28.80;27.47
63916;BME280;50094;51.356;-0.196;2023-01-26T05:19:29;102094.38;;;29.36;27.38
63916;BME280;50094;51.356;-0.196;2023-01-26T05:21:57;102098.25;;;29.12;27.33
63916;BME280;50094;51.356;-0.196;2023-01-26T05:24:25;102095.97;;;29.34;27.27
63916;BME280;50094;51.356;-0.196;2023-01-26T05:26:52;102094.85;;;29.13;27.23
63916;BME280;50094;51.356;-0.196;2023-01-26T05:29:20;102092.47;;;29.14;27.18
63916;BME280;50094;51.356;-0.196;2023-01-26T05:31:47;102096.96;;;29.12;27.16
63916;BME280;50094;51.356;-0.196;2023-01-26T05:34:15;102097.61;;;29.13;27.14
63916;BME280;50094;51.356;-0.196;2023-01-26T05:36:43;102096.50;;;29.12;27.14
63916;BME280;50094;51.356;-0.196;2023-01-26T05:39:10;102097.96;;;29.12;27.15
63916;BME280;50094;51.356;-0.196;2023-01-26T05:41:38;102106.07;;;29.20;27.19
63916;BME280;50094;51.356;-0.196;2023-01-26T05:44:06;102104.61;;;29.02;27.21
63916;BME280;50094;51.356;-0.196;2023-01-26T05:46:34;102102.57;;;29.20;27.17
63916;BME280;50094;51.356;-0.196;2023-01-26T05:49:01;102096.59;;;29.61;27.13
63916;BME280;50094;51.356;-0.196;2023-01-26T05:51:28;102094.10;;;29.58;27.11
63916;BME280;50094;51.356;-0.196;2023-01-26T05:53:56;102090.38;;;29.49;27.04
63916;BME280;50094;51.356;-0.196;2023-01-26T05:56:23;102091.31;;;29.69;26.91
63916;BME280;50094;51.356;-0.196;2023-01-26T05:58:51;102095.28;;;29.79;26.84
63916;BME280;50094;51.356;-0.196;2023-01-26T06:01:19;102096.31;;;29.87;26.77
63916;BME280;50094;51.356;-0.196;2023-01-26T06:03:46;102095.49;;;29.70;26.72
63916;BME280;50094;51.356;-0.196;2023-01-26T06:06:14;102101.87;;;30.02;26.49
63916;BME280;50094;51.356;-0.196;2023-01-26T06:08:41;102106.28;;;29.95;26.51
63916;BME280;50094;51.356;-0.196;2023-01-26T06:11:09;102108.33;;;30.02;26.43
63916;BME280;50094;51.356;-0.196;2023-01-26T06:13:36;102100.84;;;30.19;26.30
63916;BME280;50094;51.356;-0.196;2023-01-26T06:16:05;102096.82;;;30.28;26.18
63916;BME280;50094;51.356;-0.196;2023-01-26T06:18:32;102102.35;;;30.41;26.08
63916;BME280;50094;51.356;-0.196;2023-01-26T06:20:59;102104.28;;;30.50;25.78
63916;BME280;50094;51.356;-0.196;2023-01-26T06:23:26;102103.70;;;30.52;25.55
63916;BME280;50094;51.356;-0.196;2023-01-26T06:25:57;102104.61;;;30.37;25.40
63916;BME280;50094;51.356;-0.196;2023-01-26T06:28:25;102106.35;;;30.05;25.17
63916;BME280;50094;51.356;-0.196;2023-01-26T06:30:58;102109.57;;;29.91;25.11
63916;BME280;50094;51.356;-0.196;2023-01-26T06:33:25;102125.48;;;29.92;25.12
63916;BME280;50094;51.356;-0.196;2023-01-26T06:35:53;102127.63;;;29.68;25.09
63916;BME280;50094;51.356;-0.196;2023-01-26T06:38:21;102126.96;;;29.49;25.05
63916;BME280;50094;51.356;-0.196;2023-01-26T06:40:48;102127.63;;;29.26;25.08
63916;BME280;50094;51.356;-0.196;2023-01-26T06:43:16;102132.89;;;29.02;25.12
63916;BME280;50094;51.356;-0.196;2023-01-26T06:45:43;102141.19;;;28.80;25.16
63916;BME280;50094;51.356;-0.196;2023-01-26T06:48:11;102152.79;;;28.86;25.13
63916;BME280;50094;51.356;-0.196;2023-01-26T06:50:39;102155.34;;;28.67;25.20
63916;BME280;50094;51.356;-0.196;2023-01-26T06:53:25;102158.74;;;28.75;25.25
63916;BME280;50094;51.356;-0.196;2023-01-26T06:55:55;102160.15;;;28.56;25.28
63916;BME280;50094;51.356;-0.196;2023-01-26T06:58:22;102159.49;;;28.41;25.26
63916;BME280;50094;51.356;-0.196;2023-01-26T07:00:50;102163.81;;;28.25;25.28
63916;BME280;50094;51.356;-0.196;2023-01-26T07:03:17;102169.63;;;28.12;25.25
63916;BME280;50094;51.356;-0.196;2023-01-26T07:05:44;102174.53;;;28.00;25.27
63916;BME280;50094;51.356;-0.196;2023-01-26T07:08:12;102177.79;;;27.86;25.31
63916;BME280;50094;51.356;-0.196;2023-01-26T07:10:40;102178.71;;;27.76;25.36
63916;BME280;50094;51.356;-0.196;2023-01-26T07:13:07;102179.78;;;27.89;25.38
63916;BME280;50094;51.356;-0.196;2023-01-26T07:15:35;102187.02;;;27.49;25.43
63916;BME280;50094;51.356;-0.196;2023-01-26T07:18:03;102190.42;;;27.86;25.45
63916;BME280;50094;51.356;-0.196;2023-01-26T07:20:30;102195.57;;;27.77;25.46
63916;BME280;50094;51.356;-0.196;2023-01-26T07:22:58;102203.38;;;27.68;25.48
63916;BME280;50094;51.356;-0.196;2023-01-26T07:25:26;102200.55;;;27.61;25.52
63916;BME280;50094;51.356;-0.196;2023-01-26T07:27:55;102195.50;;;27.50;25.59
63916;BME280;50094;51.356;-0.196;2023-01-26T07:30:23;102203.71;;;26.96;25.61
63916;BME280;50094;51.356;-0.196;2023-01-26T07:32:50;102203.75;;;27.14;25.65
63916;BME280;50094;51.356;-0.196;2023-01-26T07:35:17;102200.58;;;27.24;25.72
63916;BME280;50094;51.356;-0.196;2023-01-26T07:37:45;102201.69;;;26.96;25.73
63916;BME280;50094;51.356;-0.196;2023-01-26T07:40:12;102195.48;;;27.17;25.74
63916;BME280;50094;51.356;-0.196;2023-01-26T07:42:39;102190.49;;;27.03;25.80
63916;BME280;50094;51.356;-0.196;2023-01-26T07:45:07;102181.39;;;26.93;25.84
63916;BME280;50094;51.356;-0.196;2023-01-26T07:47:34;102180.09;;;26.89;25.84
63916;BME280;50094;51.356;-0.196;2023-01-26T07:50:03;102185.18;;;26.85;25.92
63916;BME280;50094;51.356;-0.196;2023-01-26T07:52:30;102201.97;;;26.78;25.97
63916;BME280;50094;51.356;-0.196;2023-01-26T07:54:56;102208.42;;;27.01;25.92
63916;BME280;50094;51.356;-0.196;2023-01-26T07:57:23;102220.13;;;26.99;25.96
63916;BME280;50094;51.356;-0.196;2023-01-26T07:59:50;102223.02;;;26.64;25.98
63916;BME280;50094;51.356;-0.196;2023-01-26T08:02:18;102215.36;;;26.58;25.97
63916;BME280;50094;51.356;-0.196;2023-01-26T08:04:45;102217.08;;;26.57;25.98
63916;BME280;50094;51.356;-0.196;2023-01-26T08:07:11;102217.00;;;26.57;25.93
63916;BME280;50094;51.356;-0.196;2023-01-26T08:09:39;102216.78;;;26.79;25.94
63916;BME280;50094;51.356;-0.196;2023-01-26T08:12:06;102211.72;;;26.45;25.97
63916;BME280;50094;51.356;-0.196;2023-01-26T08:14:34;102212.84;;;26.67;26.01
63916;BME280;50094;51.356;-0.196;2023-01-26T08:17:01;102215.33;;;26.39;26.02
63916;BME280;50094;51.356;-0.196;2023-01-26T08:19:28;102214.83;;;26.60;26.04
63916;BME280;50094;51.356;-0.196;2023-01-26T08:21:55;102220.18;;;26.76;26.09
63916;BME280;50094;51.356;-0.196;2023-01-26T08:24:23;102223.96;;;26.47;26.11
63916;BME280;50094;51.356;-0.196;2023-01-26T08:26:50;102225.26;;;26.15;26.12
63916;BME280;50094;51.356;-0.196;2023-01-26T08:29:18;102219.85;;;26.42;26.08
63916;BME280;50094;51.356;-0.196;2023-01-26T08:31:46;102217.35;;;26.08;26.11
63916;BME280;50094;51.356;-0.196;2023-01-26T08:34:13;102219.89;;;26.33;26.11
63916;BME280;50094;51.356;-0.196;2023-01-26T08:36:41;102210.60;;;25.98;26.10
63916;BME280;50094;51.356;-0.196;2023-01-26T08:39:09;102206.85;;;25.96;26.06
63916;BME280;50094;51.356;-0.196;2023-01-26T08:41:35;102208.77;;;25.95;26.05
63916;BME280;50094;51.356;-0.196;2023-01-26T08:44:02;102212.39;;;26.37;26.03
63916;BME280;50094;51.356;-0.196;2023-01-26T08:46:29;102212.57;;;26.03;26.01
63916;BME280;50094;51.356;-0.196;2023-01-26T08:48:56;102211.28;;;26.04;26.03
63916;BME280;50094;51.356;-0.196;2023-01-26T08:51:23;102212.10;;;26.18;26.02
63916;BME280;50094;51.356;-0.196;2023-01-26T08:53:50;102216.31;;;26.21;26.02
63916;BME280;50094;51.356;-0.196;2023-01-26T08:56:17;102219.94;;;25.94;25.98
63916;BME280;50094;51.356;-0.196;2023-01-26T08:58:44;102228.47;;;25.67;26.00
63916;BME280;50094;51.356;-0.196;2023-01-26T09:01:13;102232.13;;;25.89;25.98
63916;BME280;50094;51.356;-0.196;2023-01-26T09:03:41;102228.81;;;25.87;26.02
63916;BME280;50094;51.356;-0.196;2023-01-26T09:06:09;102228.94;;;26.08;26.00
63916;BME280;50094;51.356;-0.196;2023-01-26T09:08:36;102221.87;;;26.05;25.94
63916;BME280;50094;51.356;-0.196;2023-01-26T09:11:06;102218.48;;;25.80;25.97
63916;BME280;50094;51.356;-0.196;2023-01-26T09:13:33;102224.02;;;25.78;26.00
63916;BME280;50094;51.356;-0.196;2023-01-26T09:16:02;102226.73;;;25.98;26.02
63916;BME280;50094;51.356;-0.196;2023-01-26T09:18:30;102235.50;;;25.88;25.97
63916;BME280;50094;51.356;-0.196;2023-01-26T09:21:02;102237.12;;;25.87;25.91
63916;BME280;50094;51.356;-0.196;2023-01-26T09:23:30;102247.03;;;26.00;25.88
63916;BME280;50094;51.356;-0.196;2023-01-26T09:25:57;102254.11;;;25.79;25.84
63916;BME280;50094;51.356;-0.196;2023-01-26T09:28:25;102252.00;;;25.75;25.80
63916;BME280;50094;51.356;-0.196;2023-01-26T09:30:53;102250.59;;;25.75;25.77
63916;BME280;50094;51.356;-0.196;2023-01-26T09:33:20;102258.00;;;25.68;25.83
63916;BME280;50094;51.356;-0.196;2023-01-26T09:35:48;102248.09;;;25.65;25.83
63916;BME280;50094;51.356;-0.196;2023-01-26T09:38:16;102249.68;;;25.65;25.88
63916;BME280;50094;51.356;-0.196;2023-01-26T09:40:49;102252.71;;;25.49;25.87
63916;BME280;50094;51.356;-0.196;2023-01-26T09:43:27;102252.21;;;25.38;25.82
63916;BME280;50094;51.356;-0.196;2023-01-26T09:46:03;102255.53;;;25.63;25.83
63916;BME280;50094;51.356;-0.196;2023-01-26T09:48:40;102254.25;;;25.56;25.90
63916;BME280;50094;51.356;-0.196;2023-01-26T09:51:12;102258.10;;;25.62;25.86
63916;BME280;50094;51.356;-0.196;2023-01-26T09:53:47;102261.10;;;25.57;25.87
63916;BME280;50094;51.356;-0.196;2023-01-26T09:56:19;102256.91;;;25.31;25.87
63916;BME280;50094;51.356;-0.196;2023-01-26T09:58:52;102260.02;;;25.50;25.85
63916;BME280;50094;51.356;-0.196;2023-01-26T10:01:27;102261.04;;;25.28;25.89
63916;BME280;50094;51.356;-0.196;2023-01-26T10:04:03;102262.12;;;25.44;25.89
63916;BME280;50094;51.356;-0.196;2023-01-26T10:06:31;102260.48;;;25.24;25.89
63916;BME280;50094;51.356;-0.196;2023-01-26T10:09:01;102260.50;;;25.60;25.88
63916;BME280;50094;51.356;-0.196;2023-01-26T10:11:33;102264.53;;;25.66;25.85
63916;BME280;50094;51.356;-0.196;2023-01-26T10:14:08;102267.75;;;25.20;25.88
63916;BME280;50094;51.356;-0.196;2023-01-26T10:16:37;102270.53;;;25.60;25.88
63916;BME280;50094;51.356;-0.196;2023-01-26T10:19:08;102265.15;;;25.39;25.85
63916;BME280;50094;51.356;-0.196;2023-01-26T10:21:42;102266.55;;;25.61;25.84
63916;BME280;50094;51.356;-0.196;2023-01-26T10:24:11;102269.38;;;25.38;25.84
63916;BME280;50094;51.356;-0.196;2023-01-26T10:26:40;102274.21;;;25.33;25.87
63916;BME280;50094;51.356;-0.196;2023-01-26T10:29:12;102273.84;;;25.57;25.86
63916;BME280;50094;51.356;-0.196;2023-01-26T10:31:40;102273.13;;;25.57;25.84
63916;BME280;50094;51.356;-0.196;2023-01-26T10:34:12;102272.73;;;25.34;25.84
63916;BME280;50094;51.356;-0.196;2023-01-26T10:36:41;102277.54;;;25.39;25.82
63916;BME280;50094;51.356;-0.196;2023-01-26T10:39:11;102282.57;;;25.34;25.85
63916;BME280;50094;51.356;-0.196;2023-01-26T10:41:40;102288.94;;;25.54;25.82
63916;BME280;50094;51.356;-0.196;2023-01-26T10:44:24;102287.99;;;25.48;25.80
63916;BME280;50094;51.356;-0.196;2023-01-26T10:47:03;102289.54;;;25.24;25.81
63916;BME280;50094;51.356;-0.196;2023-01-26T10:49:31;102281.13;;;25.22;25.85
63916;BME280;50094;51.356;-0.196;2023-01-26T10:52:13;102278.32;;;25.17;25.87
63916;BME280;50094;51.356;-0.196;2023-01-26T10:54:41;102273.80;;;25.42;25.84
63916;BME280;50094;51.356;-0.196;2023-01-26T10:57:16;102276.91;;;25.36;25.84
63916;BME280;50094;51.356;-0.196;2023-01-26T10:59:50;102274.75;;;25.35;25.86
63916;BME280;50094;51.356;-0.196;2023-01-26T11:02:22;102271.69;;;25.35;25.87
63916;BME280;50094;51.356;-0.196;2023-01-26T11:05:23;102268.54;;;24.87;25.89
63916;BME280;50094;51.356;-0.196;2023-01-26T11:07:52;102274.28;;;25.30;25.90
63916;BME280;50094;51.356;-0.196;2023-01-26T11:10:24;102275.30;;;25.28;25.90
63916;BME280;50094;51.356;-0.196;2023-01-26T11:13:07;102276.41;;;25.10;25.89
63916;BME280;50094;51.356;-0.196;2023-01-26T11:15:40;102274.66;;;25.29;25.90
63916;BME280;50094;51.356;-0.196;2023-01-26T11:18:15;102264.32;;;25.07;25.90
63916;BME280;50094;51.356;-0.196;2023-01-26T11:20:51;102266.45;;;25.28;25.88
63916;BME280;50094;51.356;-0.196;2023-01-26T11:23:32;102269.11;;;25.26;25.90
63916;BME280;50094;51.356;-0.196;2023-01-26T11:26:22;102269.71;;;25.03;25.91
63916;BME280;50094;51.356;-0.196;2023-01-26T11:29:02;102269.79;;;25.00;25.93
63916;BME280;50094;51.356;-0.196;2023-01-26T11:31:43;102264.70;;;25.48;25.92
63916;BME280;50094;51.356;-0.196;2023-01-26T11:34:23;102263.02;;;25.49;25.94
63916;BME280;50094;51.356;-0.196;2023-01-26T11:37:13;102257.16;;;25.20;25.93
63916;BME280;50094;51.356;-0.196;2023-01-26T11:39:51;102252.00;;;24.96;25.92
63916;BME280;50094;51.356;-0.196;2023-01-26T11:42:26;102250.80;;;24.94;25.93
63916;BME280;50094;51.356;-0.196;2023-01-26T11:45:08;102253.27;;;25.14;25.90
63916;BME280;50094;51.356;-0.196;2023-01-26T11:47:51;102251.76;;;24.92;25.91
63916;BME280;50094;51.356;-0.196;2023-01-26T11:50:29;102253.76;;;25.09;25.91
63916;BME280;50094;51.356;-0.196;2023-01-26T11:53:13;102240.07;;;25.34;25.89
63916;BME280;50094;51.356;-0.196;2023-01-26T11:55:57;102244.83;;;25.05;25.89
63916;BME280;50094;51.356;-0.196;2023-01-26T11:58:31;102248.68;;;25.03;25.88
63916;BME280;50094;51.356;-0.196;2023-01-26T12:01:01;102244.02;;;25.03;25.86
63916;BME280;50094;51.356;-0.196;2023-01-26T12:03:37;102246.02;;;25.08;25.82
63916;BME280;50094;51.356;-0.196;2023-01-26T12:06:11;102254.27;;;24.84;25.80
63916;BME280;50094;51.356;-0.196;2023-01-26T12:08:43;102250.86;;;24.80;25.81
63916;BME280;50094;51.356;-0.196;2023-01-26T12:11:16;102250.05;;;24.80;25.82
63916;BME280;50094;51.356;-0.196;2023-01-26T12:13:48;102244.79;;;25.03;25.80
63916;BME280;50094;51.356;-0.196;2023-01-26T12:16:26;102242.83;;;25.00;25.78
63916;BME280;50094;51.356;-0.196;2023-01-26T12:19:03;102230.68;;;24.76;25.76
63916;BME280;50094;51.356;-0.196;2023-01-26T12:21:35;102230.41;;;24.92;25.75
63916;BME280;50094;51.356;-0.196;2023-01-26T12:24:05;102230.05;;;24.70;25.78
63916;BME280;50094;51.356;-0.196;2023-01-26T12:26:41;102229.52;;;24.94;25.80
63916;BME280;50094;51.356;-0.196;2023-01-26T12:29:13;102238.15;;;24.95;25.83
63916;BME280;50094;51.356;-0.196;2023-01-26T12:31:47;102233.95;;;24.94;25.77
63916;BME280;50094;51.356;-0.196;2023-01-26T12:34:15;102230.80;;;24.93;25.78
63916;BME280;50094;51.356;-0.196;2023-01-26T12:36:48;102232.94;;;25.18;25.76
63916;BME280;50094;51.356;-0.196;2023-01-26T12:39:24;102226.27;;;25.16;25.76
63916;BME280;50094;51.356;-0.196;2023-01-26T12:42:02;102225.53;;;24.91;25.75
63916;BME280;50094;51.356;-0.196;2023-01-26T12:44:37;102226.81;;;24.88;25.73
63916;BME280;50094;51.356;-0.196;2023-01-26T12:47:12;102220.60;;;25.04;25.71
63916;BME280;50094;51.356;-0.196;2023-01-26T12:49:48;102228.77;;;24.82;25.70
63916;BME280;50094;51.356;-0.196;2023-01-26T12:52:21;102232.43;;;24.79;25.69